createdAt,value
2023-06-27T00:00:16.033Z,16.17
2023-06-27T00:02:49.576Z,16.22
2023-06-27T00:05:16.225Z,16.26
2023-06-27T00:07:43.374Z,16.31
2023-06-27T00:10:13.129Z,16.33
2023-06-27T00:12:39.713Z,16.35
2023-06-27T00:15:07.004Z,16.35
2023-06-27T00:17:34.568Z,16.39
2023-06-27T00:20:01.805Z,16.39
2023-06-27T00:22:28.409Z,16.39
2023-06-27T00:24:55.235Z,16.41
2023-06-27T00:27:22.178Z,16.41
2023-06-27T00:29:48.843Z,16.43
2023-06-27T00:32:15.462Z,16.46
2023-06-27T00:34:42.245Z,16.44
2023-06-27T00:37:09.130Z,16.47
2023-06-27T00:39:37.471Z,16.47
2023-06-27T00:42:04.597Z,16.49
2023-06-27T00:44:31.124Z,16.54
2023-06-27T00:46:58.089Z,16.57
2023-06-27T00:49:25.428Z,16.55
2023-06-27T00:51:54.467Z,16.53
2023-06-27T00:54:27.535Z,16.55
2023-06-27T00:56:57.565Z,16.55
2023-06-27T00:59:28.121Z,16.50
2023-06-27T01:01:55.183Z,16.41
2023-06-27T01:04:21.805Z,16.37
2023-06-27T01:06:55.629Z,16.35
2023-06-27T01:09:32.210Z,16.38
2023-06-27T01:12:10.950Z,16.41
2023-06-27T01:14:39.006Z,16.43
2023-06-27T01:17:06.457Z,16.50
2023-06-27T01:19:36.903Z,16.50
2023-06-27T01:22:10.239Z,16.49
2023-06-27T01:24:38.020Z,16.48
2023-06-27T01:27:05.414Z,16.44
2023-06-27T01:29:32.018Z,16.37
2023-06-27T01:32:25.771Z,16.23
2023-06-27T01:35:09.979Z,16.12
2023-06-27T01:37:45.740Z,15.98
2023-06-27T01:40:15.407Z,15.90
2023-06-27T01:42:44.301Z,15.76
2023-06-27T01:45:12.909Z,15.67
2023-06-27T01:47:43.981Z,15.61
2023-06-27T01:50:12.295Z,15.56
2023-06-27T01:52:40.591Z,15.50
2023-06-27T01:55:07.908Z,15.45
2023-06-27T01:57:34.725Z,15.45
2023-06-27T02:00:01.330Z,15.37
2023-06-27T02:02:42.444Z,15.28
2023-06-27T02:05:09.415Z,15.23
2023-06-27T02:07:36.286Z,15.17
2023-06-27T02:10:03.304Z,15.11
2023-06-27T02:12:30.234Z,15.08
2023-06-27T02:14:57.542Z,15.09
2023-06-27T02:17:24.529Z,15.07
2023-06-27T02:19:51.137Z,14.99
2023-06-27T02:22:24.243Z,14.98
2023-06-27T02:24:57.879Z,14.89
2023-06-27T02:27:24.531Z,14.82
2023-06-27T02:29:52.482Z,14.77
2023-06-27T02:32:19.380Z,14.71
2023-06-27T02:34:45.991Z,14.66
2023-06-27T02:37:13.546Z,14.56
2023-06-27T02:39:40.135Z,14.47
2023-06-27T02:42:07.052Z,14.46
2023-06-27T02:44:33.570Z,14.44
2023-06-27T02:47:00.127Z,14.42
2023-06-27T02:49:26.757Z,14.41
2023-06-27T02:51:56.897Z,14.41
2023-06-27T02:54:23.437Z,14.37
2023-06-27T02:56:50.549Z,14.40
2023-06-27T02:59:17.099Z,14.38
2023-06-27T03:01:43.864Z,14.37
2023-06-27T03:04:19.105Z,14.37
2023-06-27T03:06:48.000Z,14.35
2023-06-27T03:09:15.168Z,14.36
2023-06-27T03:11:42.128Z,14.38
2023-06-27T03:14:08.864Z,14.40
2023-06-27T03:16:35.924Z,14.41
2023-06-27T03:19:03.134Z,14.43
2023-06-27T03:21:30.621Z,14.43
2023-06-27T03:23:57.481Z,14.47
2023-06-27T03:26:32.018Z,14.47
2023-06-27T03:29:01.146Z,14.48
2023-06-27T03:31:28.084Z,14.53
2023-06-27T03:33:56.079Z,14.57
2023-06-27T03:36:22.693Z,14.64
2023-06-27T03:38:52.086Z,14.76
2023-06-27T03:41:19.152Z,14.84
2023-06-27T03:43:47.411Z,14.94
2023-06-27T03:46:15.365Z,15.05
2023-06-27T03:48:42.135Z,15.18
2023-06-27T03:51:08.698Z,15.25
2023-06-27T03:53:35.360Z,15.33
2023-06-27T03:56:03.336Z,15.35
2023-06-27T03:58:31.763Z,15.39
2023-06-27T04:01:01.881Z,15.41
2023-06-27T04:03:29.612Z,15.47
2023-06-27T04:05:56.265Z,15.56
2023-06-27T04:08:24.558Z,15.62
2023-06-27T04:10:51.090Z,15.67
2023-06-27T04:13:19.566Z,15.71
2023-06-27T04:15:46.070Z,15.73
2023-06-27T04:18:14.441Z,15.78
2023-06-27T04:20:41.087Z,15.83
2023-06-27T04:23:07.894Z,15.85
2023-06-27T04:25:39.433Z,15.92
2023-06-27T04:28:06.369Z,15.93
2023-06-27T04:30:33.829Z,15.96
2023-06-27T04:33:05.541Z,15.97
2023-06-27T04:35:32.153Z,16.01
2023-06-27T04:38:06.030Z,16.04
2023-06-27T04:40:32.710Z,16.07
2023-06-27T04:43:05.478Z,16.07
2023-06-27T04:45:32.911Z,16.03
2023-06-27T04:48:01.312Z,16.01
2023-06-27T04:50:28.167Z,16.06
2023-06-27T04:52:56.213Z,16.11
2023-06-27T04:55:23.000Z,16.17
2023-06-27T04:57:49.597Z,16.24
2023-06-27T05:00:16.541Z,16.24
2023-06-27T05:02:49.557Z,16.30
2023-06-27T05:05:18.300Z,16.34
2023-06-27T05:07:45.008Z,16.39
2023-06-27T05:10:11.566Z,16.46
2023-06-27T05:12:38.089Z,16.58
2023-06-27T05:15:10.496Z,16.66
2023-06-27T05:17:37.179Z,16.73
2023-06-27T05:20:05.407Z,16.88
2023-06-27T05:22:31.940Z,17.03
2023-06-27T05:25:01.217Z,17.20
2023-06-27T05:27:27.844Z,17.43
2023-06-27T05:29:58.360Z,17.65
2023-06-27T05:32:25.461Z,17.97
2023-06-27T05:34:52.037Z,18.46
2023-06-27T05:37:18.648Z,18.97
2023-06-27T05:39:46.411Z,19.53
2023-06-27T05:42:16.474Z,20.25
2023-06-27T05:44:43.031Z,20.43
2023-06-27T05:47:09.718Z,20.14
2023-06-27T05:49:36.244Z,20.17
2023-06-27T05:52:11.797Z,21.03
2023-06-27T05:54:47.763Z,22.37
2023-06-27T05:57:14.447Z,22.96
2023-06-27T05:59:41.199Z,23.28
2023-06-27T06:02:07.828Z,24.47
2023-06-27T06:04:34.821Z,25.69
2023-06-27T06:07:01.429Z,27.06
2023-06-27T06:09:49.476Z,28.54
2023-06-27T06:12:15.994Z,29.46
2023-06-27T06:14:42.681Z,30.20
2023-06-27T06:17:09.204Z,31.00
2023-06-27T06:19:35.686Z,31.50
2023-06-27T06:22:02.225Z,31.72
2023-06-27T06:24:28.818Z,31.42
2023-06-27T06:26:55.341Z,31.45
2023-06-27T06:29:21.881Z,31.93
2023-06-27T06:31:49.785Z,32.22
2023-06-27T06:34:16.217Z,31.20
2023-06-27T06:36:43.126Z,30.54
2023-06-27T06:39:09.629Z,31.17
2023-06-27T06:41:36.123Z,31.84
2023-06-27T06:46:54.364Z,31.72
2023-06-27T06:49:20.927Z,32.19
2023-06-27T06:51:47.590Z,32.62
2023-06-27T06:54:34.339Z,33.27
2023-06-27T06:57:00.968Z,33.66
2023-06-27T06:59:27.573Z,33.64
2023-06-27T07:02:01.093Z,33.83
2023-06-27T07:04:27.665Z,33.69
2023-06-27T07:06:59.393Z,32.00
2023-06-27T07:09:29.571Z,31.45
2023-06-27T07:12:05.382Z,32.37
2023-06-27T07:14:33.416Z,33.26
2023-06-27T07:16:59.986Z,33.54
2023-06-27T07:19:27.735Z,34.38
2023-06-27T07:21:54.378Z,33.33
2023-06-27T07:24:20.969Z,31.63
2023-06-27T07:26:47.601Z,30.20
2023-06-27T07:29:14.218Z,29.59
2023-06-27T07:31:40.808Z,28.58
2023-06-27T07:34:07.570Z,28.73
2023-06-27T07:36:34.103Z,28.75
2023-06-27T07:39:00.740Z,28.11
2023-06-27T07:41:27.423Z,30.79
2023-06-27T07:43:54.021Z,32.40
2023-06-27T07:46:20.559Z,31.80
2023-06-27T07:48:49.220Z,30.03
2023-06-27T07:51:15.831Z,28.94
2023-06-27T07:53:43.072Z,28.13
2023-06-27T07:56:16.535Z,30.66
2023-06-27T07:58:44.406Z,30.13
2023-06-27T08:01:14.216Z,28.55
2023-06-27T08:03:51.828Z,27.88
2023-06-27T08:06:40.310Z,29.90
2023-06-27T08:09:07.394Z,31.92
2023-06-27T08:11:40.177Z,31.78
2023-06-27T08:14:07.155Z,30.26
2023-06-27T08:16:49.467Z,29.09
2023-06-27T08:19:16.076Z,28.04
2023-06-27T08:21:48.195Z,27.24
2023-06-27T08:24:14.915Z,26.83
2023-06-27T08:26:42.114Z,26.24
2023-06-27T08:29:17.821Z,26.05
2023-06-27T08:31:44.365Z,25.59
2023-06-27T08:36:52.823Z,25.98
2023-06-27T08:39:19.552Z,26.08
2023-06-27T08:41:49.836Z,25.93
2023-06-27T08:44:16.693Z,25.92
2023-06-27T08:46:50.918Z,26.19
2023-06-27T08:49:28.048Z,26.10
2023-06-27T08:52:01.615Z,26.26
2023-06-27T08:54:35.472Z,26.52
2023-06-27T08:57:08.170Z,26.16
2023-06-27T08:59:37.405Z,26.52
2023-06-27T09:02:05.160Z,26.63
2023-06-27T09:04:34.657Z,27.30
2023-06-27T09:07:02.030Z,27.56
2023-06-27T09:09:30.111Z,27.40
2023-06-27T09:12:15.642Z,27.47
2023-06-27T09:14:42.264Z,27.54
2023-06-27T09:17:09.503Z,27.38
2023-06-27T09:19:45.070Z,27.97
2023-06-27T09:22:12.306Z,28.28
2023-06-27T09:24:45.172Z,28.67
2023-06-27T09:27:31.586Z,27.89
2023-06-27T09:30:24.204Z,27.45
2023-06-27T09:34:02.855Z,27.34
2023-06-27T09:40:28.070Z,26.35
2023-06-27T09:42:56.647Z,26.25
2023-06-27T09:45:24.933Z,25.91
2023-06-27T09:47:53.783Z,25.61
2023-06-27T09:50:28.102Z,25.24
2023-06-27T09:53:04.122Z,25.06
2023-06-27T09:55:30.666Z,25.04
2023-06-27T09:57:58.623Z,24.87
2023-06-27T10:00:28.186Z,24.63
2023-06-27T10:02:54.917Z,24.73
2023-06-27T10:05:22.567Z,25.35
2023-06-27T10:07:50.763Z,26.00
2023-06-27T10:10:17.908Z,26.12
2023-06-27T10:12:46.075Z,25.66
2023-06-27T10:15:19.950Z,25.53
2023-06-27T10:17:46.878Z,24.96
2023-06-27T10:20:14.473Z,24.91
2023-06-27T10:22:44.933Z,24.96
2023-06-27T10:25:12.167Z,25.07
2023-06-27T10:27:40.041Z,25.02
2023-06-27T10:30:21.579Z,24.89
2023-06-27T10:32:49.349Z,24.38
2023-06-27T10:35:27.590Z,24.39
2023-06-27T10:38:10.004Z,24.46
2023-06-27T10:41:03.430Z,25.02
2023-06-27T10:43:39.533Z,25.04
2023-06-27T10:46:21.020Z,25.17
2023-06-27T10:48:50.006Z,25.29
2023-06-27T10:51:22.246Z,25.77
2023-06-27T10:54:13.063Z,26.52
2023-06-27T10:56:54.406Z,26.99
2023-06-27T10:59:23.626Z,27.72
2023-06-27T11:02:05.961Z,28.39
2023-06-27T11:04:43.235Z,28.06
2023-06-27T11:07:18.382Z,27.73
2023-06-27T11:09:59.338Z,26.92
2023-06-27T11:12:34.980Z,26.53
2023-06-27T11:15:47.992Z,26.15
2023-06-27T11:18:17.345Z,26.62
2023-06-27T11:20:44.398Z,26.80
2023-06-27T11:23:12.773Z,27.04
2023-06-27T11:25:43.423Z,27.09
2023-06-27T11:28:12.242Z,27.22
2023-06-27T11:30:39.968Z,27.08
2023-06-27T11:33:07.213Z,27.03
2023-06-27T11:35:34.312Z,27.14
2023-06-27T11:38:01.182Z,27.33
2023-06-27T11:40:28.846Z,28.11
2023-06-27T11:43:03.325Z,28.07
2023-06-27T11:45:30.733Z,27.96
2023-06-27T11:47:57.409Z,28.09
2023-06-27T11:50:24.906Z,28.08
2023-06-27T11:52:52.576Z,27.04
2023-06-27T11:55:19.251Z,26.56
2023-06-27T11:57:47.751Z,26.94
2023-06-27T12:00:23.262Z,27.06
2023-06-27T12:02:53.774Z,26.28
2023-06-27T12:05:22.295Z,26.68
2023-06-27T12:08:21.663Z,27.37
2023-06-27T12:10:58.280Z,27.34
2023-06-27T12:13:40.748Z,26.38
2023-06-27T12:16:07.493Z,26.06
2023-06-27T12:18:34.609Z,26.70
2023-06-27T12:21:01.547Z,26.97
2023-06-27T12:23:30.189Z,26.82
2023-06-27T12:25:57.086Z,26.67
2023-06-27T12:28:30.418Z,26.81
2023-06-27T12:30:57.143Z,26.80
2023-06-27T12:33:24.658Z,26.52
2023-06-27T12:35:51.564Z,26.49
2023-06-27T12:38:18.123Z,26.19
2023-06-27T12:40:44.701Z,26.23
2023-06-27T12:43:12.854Z,26.03
2023-06-27T12:45:44.329Z,25.95
2023-06-27T12:48:11.649Z,26.73
2023-06-27T12:50:38.296Z,26.74
2023-06-27T12:53:04.953Z,26.91
2023-06-27T12:55:31.565Z,27.12
2023-06-27T12:58:00.338Z,27.16
2023-06-27T13:00:26.966Z,27.04
2023-06-27T13:03:04.180Z,27.05
2023-06-27T13:05:35.443Z,27.01
2023-06-27T13:08:01.967Z,27.05
2023-06-27T13:10:28.704Z,26.93
2023-06-27T13:12:55.970Z,26.91
2023-06-27T13:15:23.778Z,27.13
2023-06-27T13:17:54.657Z,27.75
2023-06-27T13:20:21.955Z,27.65
2023-06-27T13:22:49.575Z,27.36
2023-06-27T13:25:18.490Z,26.93
2023-06-27T13:27:44.992Z,26.27
2023-06-27T13:30:20.380Z,26.12
2023-06-27T13:32:50.371Z,26.28
2023-06-27T13:35:16.984Z,26.23
2023-06-27T13:37:59.642Z,26.18
2023-06-27T13:40:29.078Z,26.09
2023-06-27T13:42:57.562Z,26.03
2023-06-27T13:45:25.210Z,26.16
2023-06-27T13:47:52.327Z,26.08
2023-06-27T13:50:19.727Z,25.96
2023-06-27T13:52:46.238Z,25.75
2023-06-27T13:55:13.065Z,25.62
2023-06-27T13:57:39.590Z,25.50
2023-06-27T14:00:06.915Z,25.44
2023-06-27T14:02:39.209Z,25.59
2023-06-27T14:05:27.686Z,25.88
2023-06-27T14:07:56.093Z,26.05
2023-06-27T14:10:23.617Z,25.79
2023-06-27T14:12:50.586Z,25.55
2023-06-27T14:15:17.800Z,25.72
2023-06-27T14:17:44.633Z,25.93
2023-06-27T14:20:14.300Z,25.94
2023-06-27T14:22:41.367Z,25.79
2023-06-27T14:25:08.664Z,25.72
2023-06-27T14:27:36.503Z,25.84
2023-06-27T14:30:04.912Z,25.92
2023-06-27T14:32:31.831Z,25.86
2023-06-27T14:34:59.274Z,25.85
2023-06-27T14:37:25.875Z,25.63
2023-06-27T14:39:54.806Z,25.54
2023-06-27T14:42:21.320Z,25.23
2023-06-27T14:44:47.987Z,25.14
2023-06-27T14:47:14.772Z,25.07
2023-06-27T14:49:41.543Z,25.03
2023-06-27T14:52:08.194Z,25.09
2023-06-27T14:54:34.898Z,25.31
2023-06-27T14:57:07.311Z,25.50
2023-06-27T14:59:34.169Z,25.74
2023-06-27T15:02:00.694Z,25.85
2023-06-27T15:04:27.299Z,25.88
2023-06-27T15:06:56.909Z,25.63
2023-06-27T15:09:23.493Z,25.59
2023-06-27T15:11:50.540Z,25.27
2023-06-27T15:14:17.259Z,24.92
2023-06-27T15:16:43.976Z,24.80
2023-06-27T15:19:10.487Z,24.70
2023-06-27T15:21:37.040Z,24.66
2023-06-27T15:24:03.787Z,24.41
2023-06-27T15:26:30.394Z,24.35
2023-06-27T15:28:56.984Z,24.30
2023-06-27T15:31:23.536Z,24.29
2023-06-27T15:33:50.135Z,24.11
2023-06-27T15:36:16.949Z,23.96
2023-06-27T15:38:43.500Z,23.86
2023-06-27T15:41:10.188Z,23.83
2023-06-27T15:43:37.226Z,23.81
2023-06-27T15:46:04.661Z,23.71
2023-06-27T15:48:31.461Z,23.66
2023-06-27T15:50:59.838Z,23.44
2023-06-27T15:53:26.601Z,23.39
2023-06-27T15:55:53.152Z,23.44
2023-06-27T15:58:19.718Z,23.30
2023-06-27T16:00:46.324Z,23.19
2023-06-27T16:03:13.012Z,23.45
2023-06-27T16:05:39.688Z,23.42
2023-06-27T16:08:06.256Z,23.41
2023-06-27T16:10:33.071Z,23.46
2023-06-27T16:12:59.838Z,23.36
2023-06-27T16:15:26.356Z,23.30
2023-06-27T16:17:53.554Z,23.32
2023-06-27T16:20:20.106Z,23.25
2023-06-27T16:22:46.652Z,23.07
2023-06-27T16:25:14.181Z,22.85
2023-06-27T16:27:40.909Z,23.00
2023-06-27T16:30:09.561Z,23.00
2023-06-27T16:32:37.469Z,23.10
2023-06-27T16:35:04.406Z,23.05
2023-06-27T16:37:32.941Z,22.94
2023-06-27T16:39:59.940Z,22.71
2023-06-27T16:42:26.543Z,22.70
2023-06-27T16:44:53.296Z,22.64
2023-06-27T16:47:21.333Z,22.54
2023-06-27T16:49:48.953Z,22.46
2023-06-27T16:52:15.475Z,22.44
2023-06-27T16:54:42.014Z,22.45
2023-06-27T16:57:08.654Z,22.52
2023-06-27T16:59:35.360Z,22.59
2023-06-27T17:02:01.983Z,22.60
2023-06-27T17:04:28.692Z,22.53
2023-06-27T17:06:55.311Z,22.45
2023-06-27T17:09:22.360Z,22.52
2023-06-27T17:11:49.077Z,22.32
2023-06-27T17:14:15.945Z,22.24
2023-06-27T17:16:43.079Z,22.17
2023-06-27T17:19:11.402Z,22.25
2023-06-27T17:21:38.694Z,22.41
2023-06-27T17:24:05.895Z,22.23
2023-06-27T17:26:32.676Z,22.05
2023-06-27T17:28:59.376Z,21.92
2023-06-27T17:31:26.675Z,21.91
2023-06-27T17:33:53.401Z,21.75
2023-06-27T17:36:20.007Z,21.66
2023-06-27T17:38:46.549Z,21.49
2023-06-27T17:41:13.051Z,21.48
2023-06-27T17:43:39.549Z,21.39
2023-06-27T17:46:06.115Z,21.36
2023-06-27T17:48:32.663Z,21.31
2023-06-27T17:50:59.181Z,21.23
2023-06-27T17:53:25.739Z,21.16
2023-06-27T17:55:52.423Z,21.06
2023-06-27T17:58:19.138Z,20.99
2023-06-27T18:00:45.959Z,20.97
2023-06-27T18:03:13.005Z,21.01
2023-06-27T18:05:39.997Z,21.14
2023-06-27T18:08:16.817Z,21.24
2023-06-27T18:10:44.438Z,21.33
2023-06-27T18:13:11.525Z,21.34
2023-06-27T18:15:38.294Z,21.29
2023-06-27T18:18:05.413Z,21.22
2023-06-27T18:20:32.153Z,21.11
2023-06-27T18:22:58.684Z,21.08
2023-06-27T18:25:25.309Z,21.07
2023-06-27T18:27:51.956Z,21.07
2023-06-27T18:30:18.588Z,20.97
2023-06-27T18:32:46.211Z,20.84
2023-06-27T18:35:12.964Z,20.74
2023-06-27T18:37:39.502Z,20.65
2023-06-27T18:40:06.596Z,20.69
2023-06-27T18:42:33.278Z,20.69
2023-06-27T18:44:59.999Z,20.59
2023-06-27T18:47:26.820Z,20.55
2023-06-27T18:49:53.533Z,20.48
2023-06-27T18:52:20.199Z,20.51
2023-06-27T18:54:46.822Z,20.45
2023-06-27T18:57:13.694Z,20.33
2023-06-27T18:59:40.180Z,20.24
2023-06-27T19:02:07.606Z,20.18
2023-06-27T19:04:37.129Z,20.20
2023-06-27T19:07:03.914Z,20.22
2023-06-27T19:09:30.652Z,20.19
2023-06-27T19:11:57.215Z,20.07
2023-06-27T19:14:23.694Z,20.04
2023-06-27T19:16:50.324Z,20.04
2023-06-27T19:19:17.718Z,20.04
2023-06-27T19:21:44.998Z,20.05
2023-06-27T19:24:12.290Z,20.06
2023-06-27T19:26:38.901Z,20.07
2023-06-27T19:29:05.445Z,20.04
2023-06-27T19:31:32.076Z,19.99
2023-06-27T19:33:58.630Z,19.93
2023-06-27T19:36:25.150Z,19.91
2023-06-27T19:38:54.801Z,19.87
2023-06-27T19:41:24.491Z,19.87
2023-06-27T19:43:51.139Z,19.82
2023-06-27T19:46:17.860Z,19.77
2023-06-27T19:48:44.466Z,19.75
2023-06-27T19:51:11.790Z,19.73
2023-06-27T19:53:39.144Z,19.72
2023-06-27T19:56:06.937Z,19.68
2023-06-27T19:58:33.528Z,19.62
2023-06-27T20:01:00.659Z,19.53
2023-06-27T20:03:27.218Z,19.44
2023-06-27T20:05:56.505Z,19.36
2023-06-27T20:08:23.251Z,19.28
2023-06-27T20:10:49.904Z,19.11
2023-06-27T20:13:16.764Z,19.07
2023-06-27T20:15:43.389Z,19.01
2023-06-27T20:18:11.016Z,18.86
2023-06-27T20:20:37.558Z,18.75
2023-06-27T20:23:04.221Z,18.71
2023-06-27T20:25:30.734Z,18.67
2023-06-27T20:28:00.421Z,18.58
2023-06-27T20:30:29.132Z,18.47
2023-06-27T20:32:56.157Z,18.42
2023-06-27T20:35:22.910Z,18.35
2023-06-27T20:37:49.851Z,18.28
2023-06-27T20:40:16.654Z,18.22
2023-06-27T20:42:46.756Z,18.13
2023-06-27T20:45:14.457Z,18.08
2023-06-27T20:47:41.110Z,18.04
2023-06-27T20:50:09.134Z,17.90
2023-06-27T20:52:35.789Z,17.85
2023-06-27T20:55:02.532Z,17.85
2023-06-27T20:57:29.108Z,17.78
2023-06-27T20:59:57.041Z,17.76
2023-06-27T21:02:24.597Z,17.67
2023-06-27T21:04:57.333Z,17.62
2023-06-27T21:07:23.993Z,17.55
2023-06-27T21:09:50.651Z,17.52
2023-06-27T21:12:20.550Z,17.44
2023-06-27T21:14:49.480Z,17.35
2023-06-27T21:17:24.511Z,17.26
2023-06-27T21:19:51.139Z,17.20
2023-06-27T21:22:17.800Z,17.19
2023-06-27T21:24:46.819Z,17.14
2023-06-27T21:27:13.395Z,17.08
2023-06-27T21:29:40.019Z,17.03
2023-06-27T21:32:07.300Z,16.98
2023-06-27T21:34:33.834Z,16.95
2023-06-27T21:37:00.391Z,16.88
2023-06-27T21:39:27.143Z,16.89
2023-06-27T21:41:54.002Z,16.85
2023-06-27T21:44:20.695Z,16.81
2023-06-27T21:46:47.336Z,16.73
2023-06-27T21:49:13.887Z,16.72
2023-06-27T21:51:40.458Z,16.71
2023-06-27T21:54:07.037Z,16.70
2023-06-27T21:56:35.935Z,16.65
2023-06-27T21:59:04.526Z,16.60
2023-06-27T22:01:31.052Z,16.52
2023-06-27T22:03:57.832Z,16.52
2023-06-27T22:06:34.134Z,16.44
2023-06-27T22:09:01.045Z,16.49
2023-06-27T22:11:27.708Z,16.54
2023-06-27T22:13:55.497Z,16.51
2023-06-27T22:16:22.999Z,16.47
2023-06-27T22:18:50.254Z,16.42
2023-06-27T22:21:17.453Z,16.41
2023-06-27T22:23:44.108Z,16.39
2023-06-27T22:26:10.766Z,16.35
2023-06-27T22:28:38.878Z,16.32
2023-06-27T22:31:05.599Z,16.36
2023-06-27T22:33:32.496Z,16.34
2023-06-27T22:35:59.201Z,16.33
2023-06-27T22:38:27.211Z,16.33
2023-06-27T22:40:53.725Z,16.31
2023-06-27T22:43:20.277Z,16.39
2023-06-27T22:45:46.907Z,16.38
2023-06-27T22:48:13.637Z,16.30
2023-06-27T22:50:40.757Z,16.31
2023-06-27T22:53:11.894Z,16.28
2023-06-27T22:55:38.540Z,16.33
2023-06-27T22:58:05.068Z,16.25
2023-06-27T23:00:32.092Z,16.25
2023-06-27T23:02:58.789Z,16.17
2023-06-27T23:05:25.503Z,16.19
2023-06-27T23:07:52.161Z,16.18
2023-06-27T23:10:18.834Z,16.17
2023-06-27T23:12:45.414Z,16.14
2023-06-27T23:15:12.100Z,16.08
2023-06-27T23:17:39.144Z,16.07
2023-06-27T23:20:08.194Z,16.09
2023-06-27T23:22:37.898Z,16.05
2023-06-27T23:25:06.849Z,16.02
2023-06-27T23:27:36.396Z,16.02
2023-06-27T23:30:05.108Z,15.99
2023-06-27T23:32:32.026Z,15.98
2023-06-27T23:35:01.519Z,16.03
2023-06-27T23:37:28.463Z,15.96
2023-06-27T23:39:55.061Z,16.00
2023-06-27T23:42:21.604Z,15.98
2023-06-27T23:44:48.198Z,15.98
2023-06-27T23:47:15.749Z,15.98
2023-06-27T23:49:42.526Z,16.00
2023-06-27T23:52:09.054Z,16.00
2023-06-27T23:54:35.684Z,16.00
2023-06-27T23:57:02.377Z,15.99
2023-06-27T23:59:29.484Z,15.92
